createdAt,value
2019-06-01T00:01:12.567Z,100.00
2019-06-01T00:03:42.180Z,100.00
2019-06-01T00:06:10.723Z,100.00
2019-06-01T00:08:40.145Z,100.00
2019-06-01T00:11:09.509Z,100.00
2019-06-01T00:13:39.405Z,100.00
2019-06-01T00:16:07.983Z,100.00
2019-06-01T00:18:36.495Z,100.00
2019-06-01T00:21:05.037Z,100.00
2019-06-01T00:23:33.537Z,100.00
2019-06-01T00:26:02.035Z,100.00
2019-06-01T00:28:30.540Z,100.00
2019-06-01T00:30:59.022Z,100.00
2019-06-01T00:33:27.525Z,100.00
2019-06-01T00:35:56.007Z,100.00
2019-06-01T00:38:24.511Z,100.00
2019-06-01T00:40:52.980Z,100.00
2019-06-01T00:43:21.490Z,100.00
2019-06-01T00:45:50.710Z,100.00
2019-06-01T00:48:19.359Z,100.00
2019-06-01T00:50:49.118Z,100.00
2019-06-01T00:53:17.629Z,100.00
2019-06-01T00:55:47.311Z,100.00
2019-06-01T00:58:15.810Z,99.98
2019-06-01T01:00:46.125Z,100.00
2019-06-01T01:03:14.544Z,100.00
2019-06-01T01:05:44.502Z,100.00
2019-06-01T01:08:13.121Z,100.00
2019-06-01T01:10:41.610Z,100.00
2019-06-01T01:13:11.719Z,100.00
2019-06-01T01:15:40.222Z,100.00
2019-06-01T01:18:09.052Z,100.00
2019-06-01T01:20:38.393Z,100.00
2019-06-01T01:23:08.118Z,100.00
2019-06-01T01:25:36.950Z,99.91
2019-06-01T01:28:06.132Z,100.00
2019-06-01T01:30:34.665Z,100.00
2019-06-01T01:33:03.197Z,100.00
2019-06-01T01:35:31.696Z,100.00
2019-06-01T01:38:00.174Z,100.00
2019-06-01T01:40:29.449Z,100.00
2019-06-01T01:42:58.954Z,100.00
2019-06-01T01:45:27.562Z,100.00
2019-06-01T01:47:57.167Z,100.00
2019-06-01T01:50:27.230Z,100.00
2019-06-01T01:52:57.087Z,100.00
2019-06-01T01:55:25.875Z,100.00
2019-06-01T01:57:55.417Z,100.00
2019-06-01T02:00:44.309Z,100.00
2019-06-01T02:03:12.855Z,100.00
2019-06-01T02:05:41.490Z,100.00
2019-06-01T02:08:10.043Z,100.00
2019-06-01T02:10:38.788Z,100.00
2019-06-01T02:13:07.710Z,100.00
2019-06-01T02:15:37.469Z,100.00
2019-06-01T02:18:06.587Z,100.00
2019-06-01T02:20:35.156Z,100.00
2019-06-01T02:23:04.702Z,100.00
2019-06-01T02:25:33.213Z,100.00
2019-06-01T02:28:01.836Z,100.00
2019-06-01T02:30:30.487Z,100.00
2019-06-01T02:33:00.243Z,100.00
2019-06-01T02:35:28.825Z,100.00
2019-06-01T02:37:58.588Z,100.00
2019-06-01T02:40:27.408Z,100.00
2019-06-01T02:42:57.200Z,100.00
2019-06-01T02:45:26.265Z,100.00
2019-06-01T02:47:55.378Z,100.00
2019-06-01T02:50:24.169Z,100.00
2019-06-01T02:52:52.676Z,100.00
2019-06-01T02:55:21.291Z,100.00
2019-06-01T02:57:49.771Z,100.00
2019-06-01T03:00:21.487Z,100.00
2019-06-01T03:02:50.104Z,100.00
2019-06-01T03:05:19.755Z,100.00
2019-06-01T03:07:49.973Z,100.00
2019-06-01T03:10:19.116Z,100.00
2019-06-01T03:12:47.596Z,100.00
2019-06-01T03:15:16.843Z,100.00
2019-06-01T03:17:49.143Z,100.00
2019-06-01T03:20:18.279Z,100.00
2019-06-01T03:22:49.799Z,100.00
2019-06-01T03:25:18.378Z,100.00
2019-06-01T03:27:49.627Z,100.00
2019-06-01T03:30:21.183Z,100.00
2019-06-01T03:32:49.676Z,100.00
2019-06-01T03:35:18.159Z,100.00
2019-06-01T03:37:46.725Z,100.00
2019-06-01T03:40:23.555Z,100.00
2019-06-01T03:42:45.563Z,100.00
2019-06-01T03:45:14.129Z,100.00
2019-06-01T03:47:43.112Z,100.00
2019-06-01T03:50:13.159Z,100.00
2019-06-01T03:52:41.726Z,100.00
2019-06-01T03:55:10.210Z,100.00
2019-06-01T03:57:38.714Z,100.00
2019-06-01T04:00:09.397Z,100.00
2019-06-01T04:02:38.013Z,100.00
2019-06-01T04:05:07.461Z,100.00
2019-06-01T04:07:38.777Z,100.00
2019-06-01T04:10:08.000Z,100.00
2019-06-01T04:12:36.544Z,100.00
2019-06-01T04:15:10.131Z,100.00
2019-06-01T04:17:36.635Z,100.00
2019-06-01T04:20:08.207Z,100.00
2019-06-01T04:22:36.748Z,100.00
2019-06-01T04:25:06.462Z,100.00
2019-06-01T04:27:34.966Z,100.00
2019-06-01T04:30:04.452Z,100.00
2019-06-01T04:32:48.522Z,100.00
2019-06-01T04:35:03.829Z,100.00
2019-06-01T04:37:33.331Z,100.00
2019-06-01T04:40:01.876Z,100.00
2019-06-01T04:42:30.384Z,100.00
2019-06-01T04:44:58.859Z,100.00
2019-06-01T04:47:27.362Z,100.00
2019-06-01T04:49:55.848Z,100.00
2019-06-01T04:52:24.425Z,100.00
2019-06-01T04:54:52.909Z,100.00
2019-06-01T04:57:21.406Z,100.00
2019-06-01T04:59:49.883Z,100.00
2019-06-01T05:02:18.673Z,100.00
2019-06-01T05:04:47.155Z,100.00
2019-06-01T05:07:15.676Z,100.00
2019-06-01T05:09:44.148Z,100.00
2019-06-01T05:12:13.612Z,100.00
2019-06-01T05:14:42.109Z,100.00
2019-06-01T05:17:12.915Z,100.00
2019-06-01T05:19:40.808Z,100.00
2019-06-01T05:22:10.413Z,99.90
2019-06-01T05:24:38.958Z,98.22
2019-06-01T05:27:07.436Z,98.19
2019-06-01T05:29:35.936Z,96.63
2019-06-01T05:32:04.579Z,95.86
2019-06-01T05:34:33.072Z,94.87
2019-06-01T05:37:01.579Z,94.34
2019-06-01T05:39:30.078Z,93.69
2019-06-01T05:41:58.550Z,93.94
2019-06-01T05:44:27.055Z,94.02
2019-06-01T05:46:55.557Z,93.97
2019-06-01T05:49:24.061Z,93.23
2019-06-01T05:51:52.535Z,94.24
2019-06-01T05:54:21.036Z,94.51
2019-06-01T05:56:49.513Z,94.40
2019-06-01T05:59:18.354Z,95.31
2019-06-01T06:01:46.871Z,96.27
2019-06-01T06:04:15.427Z,96.41
2019-06-01T06:06:43.934Z,96.67
2019-06-01T06:09:13.318Z,95.33
2019-06-01T06:11:41.808Z,94.75
2019-06-01T06:14:11.490Z,94.41
2019-06-01T06:16:39.972Z,93.93
2019-06-01T06:19:08.481Z,93.25
2019-06-01T06:21:36.962Z,91.98
2019-06-01T06:24:05.694Z,91.73
2019-06-01T06:26:34.182Z,90.49
2019-06-01T06:29:02.687Z,89.95
2019-06-01T06:31:31.156Z,88.80
2019-06-01T06:33:59.661Z,89.31
2019-06-01T06:36:28.200Z,86.28
2019-06-01T06:38:56.708Z,88.01
2019-06-01T06:41:25.178Z,88.25
2019-06-01T06:43:53.671Z,86.68
2019-06-01T06:46:22.791Z,85.91
2019-06-01T06:48:51.307Z,85.67
2019-06-01T06:51:19.871Z,86.06
2019-06-01T06:53:48.341Z,85.74
2019-06-01T06:56:17.837Z,84.54
2019-06-01T06:58:46.391Z,83.62
2019-06-01T07:01:14.904Z,83.64
2019-06-01T07:03:43.362Z,82.72
2019-06-01T07:06:11.881Z,79.92
2019-06-01T07:08:40.348Z,80.17
2019-06-01T07:11:11.772Z,79.72
2019-06-01T07:13:39.046Z,78.71
2019-06-01T07:16:07.528Z,77.70
2019-06-01T07:18:35.998Z,72.31
2019-06-01T07:21:04.561Z,73.40
2019-06-01T07:23:33.045Z,74.00
2019-06-01T07:26:01.554Z,72.81
2019-06-01T07:28:30.027Z,73.33
2019-06-01T07:30:58.521Z,75.03
2019-06-01T07:33:26.994Z,72.76
2019-06-01T07:35:55.487Z,73.85
2019-06-01T07:38:24.588Z,74.52
2019-06-01T07:40:53.242Z,75.04
2019-06-01T07:43:22.612Z,70.76
2019-06-01T07:45:51.075Z,68.73
2019-06-01T07:48:20.861Z,69.36
2019-06-01T07:50:49.469Z,69.74
2019-06-01T07:53:17.939Z,72.64
2019-06-01T07:55:46.504Z,67.96
2019-06-01T07:58:14.971Z,68.53
2019-06-01T08:00:43.479Z,67.17
2019-06-01T08:03:11.955Z,68.55
2019-06-01T08:05:40.465Z,66.53
2019-06-01T08:08:08.928Z,65.43
2019-06-01T08:10:37.433Z,64.77
2019-06-01T08:13:05.900Z,65.42
2019-06-01T08:15:34.460Z,65.79
2019-06-01T08:18:02.944Z,63.79
2019-06-01T08:20:32.253Z,64.34
2019-06-01T08:23:00.798Z,63.47
2019-06-01T08:25:30.625Z,65.41
2019-06-01T08:27:59.246Z,65.40
2019-06-01T08:30:28.655Z,66.06
2019-06-01T08:32:57.197Z,65.14
2019-06-01T08:35:26.916Z,68.42
2019-06-01T08:37:55.435Z,66.20
2019-06-01T08:40:25.174Z,63.93
2019-06-01T08:42:53.687Z,61.33
2019-06-01T08:45:23.417Z,60.34
2019-06-01T08:47:52.029Z,62.25
2019-06-01T08:50:20.508Z,62.10
2019-06-01T08:52:48.991Z,60.71
2019-06-01T08:55:17.722Z,60.85
2019-06-01T08:57:46.225Z,59.18
2019-06-01T09:00:14.943Z,60.85
2019-06-01T09:02:43.442Z,60.17
2019-06-01T09:05:24.014Z,62.41
2019-06-01T09:07:42.717Z,60.69
2019-06-01T09:10:12.030Z,60.44
2019-06-01T09:12:40.532Z,56.95
2019-06-01T09:15:11.054Z,57.86
2019-06-01T09:17:39.632Z,59.06
2019-06-01T09:20:08.435Z,59.62
2019-06-01T09:22:36.937Z,58.11
2019-06-01T09:25:06.054Z,55.00
2019-06-01T09:27:34.550Z,56.28
2019-06-01T09:30:03.299Z,58.80
2019-06-01T09:32:32.180Z,57.89
2019-06-01T09:35:00.742Z,55.47
2019-06-01T09:37:30.450Z,57.72
2019-06-01T09:39:59.009Z,55.57
2019-06-01T09:42:28.766Z,59.29
2019-06-01T09:44:57.249Z,56.29
2019-06-01T09:47:26.977Z,56.10
2019-06-01T09:49:55.600Z,60.70
2019-06-01T09:52:24.078Z,59.06
2019-06-01T09:54:52.590Z,57.35
2019-06-01T09:57:21.068Z,52.97
2019-06-01T09:59:49.564Z,49.97
2019-06-01T10:02:18.031Z,52.24
2019-06-01T10:04:46.529Z,49.65
2019-06-01T10:07:14.997Z,53.66
2019-06-01T10:09:43.491Z,54.14
2019-06-01T10:12:11.965Z,55.84
2019-06-01T10:14:40.465Z,58.82
2019-06-01T10:17:09.230Z,55.16
2019-06-01T10:19:38.860Z,47.08
2019-06-01T10:22:07.485Z,41.39
2019-06-01T10:24:37.155Z,39.63
2019-06-01T10:27:05.749Z,43.71
2019-06-01T10:29:34.642Z,49.29
2019-06-01T10:32:03.186Z,45.85
2019-06-01T10:34:31.676Z,41.88
2019-06-01T10:37:00.143Z,37.62
2019-06-01T10:39:28.714Z,34.10
2019-06-01T10:41:57.189Z,34.01
2019-06-01T10:44:25.680Z,34.72
2019-06-01T10:46:54.157Z,34.16
2019-06-01T10:49:22.659Z,33.06
2019-06-01T10:51:51.128Z,30.49
2019-06-01T10:54:19.623Z,33.13
2019-06-01T10:56:48.103Z,31.58
2019-06-01T10:59:16.609Z,34.61
2019-06-01T11:01:45.215Z,32.53
2019-06-01T11:04:13.707Z,31.39
2019-06-01T11:06:46.464Z,36.51
2019-06-01T11:09:12.476Z,35.42
2019-06-01T11:11:41.208Z,36.79
2019-06-01T11:14:09.729Z,35.52
2019-06-01T11:16:39.493Z,33.79
2019-06-01T11:19:08.157Z,32.96
2019-06-01T11:21:37.448Z,29.34
2019-06-01T11:24:06.239Z,29.97
2019-06-01T11:26:35.571Z,30.10
2019-06-01T11:29:04.180Z,31.23
2019-06-01T11:31:33.840Z,31.89
2019-06-01T11:34:02.342Z,31.95
2019-06-01T11:36:30.816Z,38.29
2019-06-01T11:38:59.311Z,40.89
2019-06-01T11:41:27.784Z,36.25
2019-06-01T11:43:56.285Z,33.62
2019-06-01T11:46:24.753Z,33.69
2019-06-01T11:48:53.268Z,32.86
2019-06-01T11:51:21.745Z,33.22
2019-06-01T11:53:50.238Z,32.90
2019-06-01T11:56:18.742Z,34.38
2019-06-01T11:58:47.214Z,32.54
2019-06-01T12:01:15.717Z,32.28
2019-06-01T12:03:44.211Z,29.43
2019-06-01T12:06:12.788Z,30.34
2019-06-01T12:08:42.280Z,29.48
2019-06-01T12:11:10.931Z,30.30
2019-06-01T12:13:40.189Z,29.09
2019-06-01T12:16:08.775Z,28.98
2019-06-01T12:18:38.500Z,29.79
2019-06-01T12:21:08.232Z,28.92
2019-06-01T12:23:37.326Z,28.23
2019-06-01T12:26:05.883Z,27.97
2019-06-01T12:28:34.363Z,33.34
2019-06-01T12:31:02.856Z,32.21
2019-06-01T12:33:31.325Z,33.11
2019-06-01T12:35:59.817Z,34.74
2019-06-01T12:38:28.525Z,35.81
2019-06-01T12:40:57.017Z,36.32
2019-06-01T12:43:25.486Z,36.06
2019-06-01T12:46:06.946Z,38.34
2019-06-01T12:48:24.183Z,37.37
2019-06-01T12:50:52.759Z,31.08
2019-06-01T12:53:21.225Z,31.55
2019-06-01T12:55:49.721Z,30.90
2019-06-01T12:58:18.207Z,33.14
2019-06-01T13:00:46.686Z,29.61
2019-06-01T13:03:15.151Z,28.41
2019-06-01T13:05:43.679Z,29.26
2019-06-01T13:08:12.111Z,26.37
2019-06-01T13:10:41.030Z,28.32
2019-06-01T13:13:09.556Z,28.07
2019-06-01T13:15:38.047Z,29.57
2019-06-01T13:18:06.521Z,26.37
2019-06-01T13:20:35.017Z,25.59
2019-06-01T13:23:03.487Z,26.79
2019-06-01T13:25:31.982Z,25.62
2019-06-01T13:28:00.460Z,25.72
2019-06-01T13:30:28.964Z,24.94
2019-06-01T13:32:57.424Z,24.92
2019-06-01T13:35:25.924Z,27.55
2019-06-01T13:38:10.945Z,28.86
2019-06-01T13:40:25.387Z,29.72
2019-06-01T13:42:53.871Z,29.83
2019-06-01T13:45:22.438Z,26.97
2019-06-01T13:47:51.885Z,27.70
2019-06-01T13:50:20.364Z,24.30
2019-06-01T13:52:49.959Z,25.89
2019-06-01T13:55:18.506Z,26.61
2019-06-01T13:57:48.246Z,29.12
2019-06-01T14:00:29.400Z,25.32
2019-06-01T14:02:50.816Z,24.85
2019-06-01T14:05:17.369Z,24.03
2019-06-01T14:07:45.885Z,23.58
2019-06-01T14:10:14.794Z,26.14
2019-06-01T14:12:43.284Z,24.89
2019-06-01T14:15:12.037Z,25.00
2019-06-01T14:17:40.529Z,25.38
2019-06-01T14:20:09.335Z,24.54
2019-06-01T14:22:37.834Z,24.38
2019-06-01T14:25:13.673Z,25.21
2019-06-01T14:27:37.186Z,25.81
2019-06-01T14:30:07.841Z,25.95
2019-06-01T14:32:36.341Z,27.28
2019-06-01T14:35:08.798Z,25.47
2019-06-01T14:37:37.299Z,24.69
2019-06-01T14:40:06.707Z,23.95
2019-06-01T14:42:35.390Z,24.59
2019-06-01T14:45:05.446Z,26.25
2019-06-01T14:47:33.941Z,27.03
2019-06-01T14:50:02.446Z,26.43
2019-06-01T14:52:30.949Z,26.17
2019-06-01T14:54:59.430Z,24.79
2019-06-01T14:57:27.927Z,26.04
2019-06-01T14:59:56.403Z,25.45
2019-06-01T15:02:24.894Z,24.48
2019-06-01T15:04:54.324Z,25.01
2019-06-01T15:07:22.793Z,24.18
2019-06-01T15:09:52.268Z,24.64
2019-06-01T15:12:20.833Z,26.73
2019-06-01T15:14:50.779Z,27.68
2019-06-01T15:17:19.404Z,29.12
2019-06-01T15:19:47.876Z,29.28
2019-06-01T15:22:16.375Z,26.26
2019-06-01T15:24:44.845Z,26.93
2019-06-01T15:27:13.343Z,25.80
2019-06-01T15:29:41.819Z,28.15
2019-06-01T15:32:10.310Z,28.43
2019-06-01T15:34:38.789Z,29.45
2019-06-01T15:37:07.278Z,26.37
2019-06-01T15:39:35.796Z,27.74
2019-06-01T15:42:04.362Z,27.78
2019-06-01T15:44:32.834Z,28.65
2019-06-01T15:47:02.083Z,27.60
2019-06-01T15:49:30.584Z,27.75
2019-06-01T15:51:59.903Z,25.99
2019-06-01T15:54:28.427Z,26.27
2019-06-01T15:56:56.928Z,26.97
2019-06-01T15:59:28.084Z,27.21
2019-06-01T16:01:57.288Z,27.04
2019-06-01T16:04:25.925Z,27.05
2019-06-01T16:06:54.997Z,28.30
2019-06-01T16:09:41.346Z,29.98
2019-06-01T16:11:53.679Z,29.83
2019-06-01T16:14:22.189Z,31.23
2019-06-01T16:16:50.664Z,31.51
2019-06-01T16:19:19.165Z,29.86
2019-06-01T16:21:47.648Z,27.74
2019-06-01T16:24:16.144Z,27.88
2019-06-01T16:26:44.621Z,29.97
2019-06-01T16:29:13.131Z,30.46
2019-06-01T16:31:41.611Z,29.07
2019-06-01T16:34:10.108Z,29.37
2019-06-01T16:36:38.573Z,28.98
2019-06-01T16:39:09.571Z,29.66
2019-06-01T16:41:38.123Z,29.88
2019-06-01T16:44:06.896Z,30.54
2019-06-01T16:46:35.357Z,31.67
2019-06-01T16:49:03.918Z,30.62
2019-06-01T16:51:51.142Z,29.85
2019-06-01T16:54:19.710Z,28.94
2019-06-01T16:56:48.262Z,29.28
2019-06-01T16:59:16.757Z,29.12
2019-06-01T17:01:45.238Z,29.65
2019-06-01T17:04:13.730Z,31.73
2019-06-01T17:06:42.950Z,32.28
2019-06-01T17:09:11.456Z,33.06
2019-06-01T17:11:40.005Z,31.94
2019-06-01T17:14:08.577Z,32.69
2019-06-01T17:16:37.188Z,33.63
2019-06-01T17:19:07.216Z,37.02
2019-06-01T17:21:35.674Z,38.63
2019-06-01T17:24:04.434Z,37.67
2019-06-01T17:26:32.899Z,37.72
2019-06-01T17:29:02.136Z,36.34
2019-06-01T17:31:30.657Z,35.39
2019-06-01T17:34:00.351Z,35.22
2019-06-01T17:36:28.877Z,36.59
2019-06-01T17:38:57.440Z,36.21
2019-06-01T17:41:25.988Z,37.50
2019-06-01T17:43:54.489Z,37.97
2019-06-01T17:46:23.017Z,37.53
2019-06-01T17:48:51.496Z,37.92
2019-06-01T17:51:20.064Z,38.48
2019-06-01T17:53:48.553Z,38.21
2019-06-01T17:56:17.126Z,39.07
2019-06-01T17:58:45.603Z,38.96
2019-06-01T18:01:14.181Z,39.76
2019-06-01T18:03:42.659Z,39.52
2019-06-01T18:06:12.785Z,39.65
2019-06-01T18:08:41.465Z,40.92
2019-06-01T18:11:10.134Z,42.20
2019-06-01T18:13:38.586Z,42.66
2019-06-01T18:16:08.270Z,44.18
2019-06-01T18:18:36.834Z,45.17
2019-06-01T18:21:06.294Z,47.36
2019-06-01T18:23:34.816Z,49.58
2019-06-01T18:26:04.965Z,52.23
2019-06-01T18:28:33.671Z,55.12
2019-06-01T18:31:02.669Z,57.08
2019-06-01T18:33:31.294Z,58.43
2019-06-01T18:35:59.784Z,59.86
2019-06-01T18:38:28.345Z,61.77
2019-06-01T18:41:09.498Z,62.49
2019-06-01T18:43:27.089Z,62.90
2019-06-01T18:45:55.585Z,64.43
2019-06-01T18:48:24.063Z,65.96
2019-06-01T18:50:52.555Z,68.15
2019-06-01T18:53:21.033Z,67.77
2019-06-01T18:55:49.562Z,69.50
2019-06-01T18:58:18.037Z,70.27
2019-06-01T19:00:46.573Z,71.46
2019-06-01T19:03:15.624Z,71.65
2019-06-01T19:05:44.199Z,72.56
2019-06-01T19:08:13.667Z,73.73
2019-06-01T19:10:42.407Z,74.94
2019-06-01T19:13:11.697Z,75.50
2019-06-01T19:15:40.410Z,75.86
2019-06-01T19:18:10.321Z,76.39
2019-06-01T19:20:38.976Z,76.96
2019-06-01T19:23:08.660Z,78.25
2019-06-01T19:25:37.342Z,79.76
2019-06-01T19:28:06.841Z,80.12
2019-06-01T19:30:42.960Z,80.66
2019-06-01T19:33:15.498Z,80.80
2019-06-01T19:35:42.362Z,81.42
2019-06-01T19:38:11.425Z,82.27
2019-06-01T19:40:41.213Z,82.61
2019-06-01T19:43:10.251Z,82.61
2019-06-01T19:45:39.898Z,82.94
2019-06-01T19:48:10.059Z,83.63
2019-06-01T19:50:38.931Z,84.61
2019-06-01T19:53:08.667Z,85.05
2019-06-01T19:55:37.233Z,85.72
2019-06-01T19:58:05.878Z,86.27
2019-06-01T20:00:34.416Z,86.66
2019-06-01T20:03:02.901Z,86.54
2019-06-01T20:05:31.376Z,87.07
2019-06-01T20:07:59.869Z,87.09
2019-06-01T20:10:28.365Z,87.91
2019-06-01T20:12:56.864Z,87.37
2019-06-01T20:15:25.346Z,86.72
2019-06-01T20:17:53.853Z,88.05
2019-06-01T20:20:23.164Z,87.10
2019-06-01T20:22:51.663Z,86.78
2019-06-01T20:25:21.817Z,86.66
2019-06-01T20:27:50.302Z,88.80
2019-06-01T20:30:19.895Z,87.60
2019-06-01T20:32:48.489Z,88.27
2019-06-01T20:35:18.048Z,88.14
2019-06-01T20:37:46.604Z,87.94
2019-06-01T20:40:16.286Z,87.87
2019-06-01T20:42:44.779Z,88.73
2019-06-01T20:45:14.536Z,88.70
2019-06-01T20:47:43.166Z,89.70
2019-06-01T20:50:12.884Z,90.27
2019-06-01T20:52:41.400Z,91.24
2019-06-01T20:55:09.925Z,91.12
2019-06-01T20:57:38.393Z,90.38
2019-06-01T21:00:10.484Z,90.22
2019-06-01T21:02:38.964Z,89.41
2019-06-01T21:05:08.314Z,89.75
2019-06-01T21:07:37.229Z,90.81
2019-06-01T21:10:07.967Z,91.71
2019-06-01T21:12:44.826Z,91.72
2019-06-01T21:15:07.743Z,91.79
2019-06-01T21:17:36.360Z,92.05
2019-06-01T21:20:07.974Z,92.10
2019-06-01T21:22:36.562Z,92.09
2019-06-01T21:25:07.420Z,91.67
2019-06-01T21:27:35.956Z,91.42
2019-06-01T21:30:07.416Z,91.65
2019-06-01T21:32:35.891Z,91.42
2019-06-01T21:35:05.067Z,91.47
2019-06-01T21:37:33.704Z,92.08
2019-06-01T21:40:02.201Z,92.02
2019-06-01T21:42:31.051Z,91.93
2019-06-01T21:44:59.678Z,91.57
2019-06-01T21:47:28.414Z,91.53
2019-06-01T21:49:57.051Z,92.18
2019-06-01T21:52:26.360Z,91.76
2019-06-01T21:54:55.000Z,92.64
2019-06-01T21:57:24.581Z,92.17
2019-06-01T21:59:53.167Z,92.43
2019-06-01T22:02:23.030Z,92.80
2019-06-01T22:04:51.763Z,93.58
2019-06-01T22:07:21.254Z,92.88
2019-06-01T22:09:50.171Z,92.81
2019-06-01T22:12:19.193Z,93.18
2019-06-01T22:14:47.771Z,93.80
2019-06-01T22:17:17.410Z,93.94
2019-06-01T22:19:45.951Z,93.68
2019-06-01T22:22:14.427Z,93.42
2019-06-01T22:24:42.938Z,93.03
2019-06-01T22:27:11.435Z,93.12
2019-06-01T22:29:39.925Z,93.63
2019-06-01T22:32:08.400Z,92.70
2019-06-01T22:34:36.986Z,92.09
2019-06-01T22:37:05.937Z,91.69
2019-06-01T22:39:34.447Z,92.62
2019-06-01T22:42:02.925Z,92.97
2019-06-01T22:44:32.443Z,93.50
2019-06-01T22:47:01.005Z,94.74
2019-06-01T22:49:29.477Z,95.67
2019-06-01T22:51:57.985Z,94.79
2019-06-01T22:54:27.218Z,95.65
2019-06-01T22:56:55.746Z,96.22
2019-06-01T22:59:24.538Z,95.79
2019-06-01T23:01:53.114Z,95.76
2019-06-01T23:04:22.656Z,95.00
2019-06-01T23:06:51.442Z,95.48
2019-06-01T23:09:21.029Z,97.32
2019-06-01T23:11:49.589Z,97.08
2019-06-01T23:14:18.053Z,96.68
2019-06-01T23:16:46.618Z,97.28
2019-06-01T23:19:15.089Z,95.90
2019-06-01T23:21:43.582Z,94.60
2019-06-01T23:24:12.060Z,93.52
2019-06-01T23:26:40.553Z,93.33
2019-06-01T23:29:09.025Z,93.46
2019-06-01T23:31:37.526Z,93.37
2019-06-01T23:34:06.069Z,94.23
2019-06-01T23:36:34.568Z,94.86
2019-06-01T23:39:03.107Z,94.54
2019-06-01T23:41:32.873Z,93.48
2019-06-01T23:44:11.868Z,93.71
2019-06-01T23:46:33.420Z,93.48
2019-06-01T23:49:01.979Z,93.62
2019-06-01T23:51:31.818Z,93.26
2019-06-01T23:54:00.326Z,94.11
2019-06-01T23:56:29.761Z,93.56
2019-06-01T23:58:58.267Z,94.17
